Time;durP1;ratioP1;P1;durP2;ratioP2;P2;SDS_P1;SDS_P2;PMS_P1;PMS_P2;Temp;Humidity;BMP_temperature;BMP_pressure;BME280_temperature;BME280_humidity;BME280_pressure;Samples;Min_cycle;Max_cycle;Signal;HPM_P1;HPM_P2
2021/12/03 00:01:45;;;;;;;32.78;7.97;;;14.90;99.90;;;;;;5108487;27;20081;-59
2021/12/03 00:04:12;;;;;;;23.23;5.93;;;14.90;99.90;;;;;;5098070;28;20036;-59
2021/12/03 00:06:40;;;;;;;24.85;7.88;;;14.80;99.90;;;;;;5097599;28;20036;-59
2021/12/03 00:09:08;;;;;;;21.75;7.80;;;14.80;99.90;;;;;;5105059;28;20036;-59
2021/12/03 00:11:35;;;;;;;25.60;6.63;;;14.80;99.90;;;;;;5106089;28;20081;-60
2021/12/03 00:14:03;;;;;;;40.53;8.88;;;14.80;99.90;;;;;;5118673;27;20035;-59
2021/12/03 00:16:31;;;;;;;25.17;6.93;;;14.80;99.90;;;;;;5110508;28;20450;-59
2021/12/03 00:18:58;;;;;;;29.80;7.00;;;14.80;99.90;;;;;;5108549;28;20048;-59
2021/12/03 00:21:27;;;;;;;28.45;7.68;;;14.70;99.90;;;;;;5106627;28;20126;-59
2021/12/03 00:23:54;;;;;;;27.48;6.28;;;14.70;99.90;;;;;;5072486;28;20044;-59
2021/12/03 00:26:22;;;;;;;28.15;8.05;;;14.70;99.90;;;;;;5103807;28;20058;-59
2021/12/03 00:28:50;;;;;;;23.45;7.00;;;14.70;99.90;;;;;;5110019;28;20047;-58
2021/12/03 00:31:18;;;;;;;31.52;10.70;;;14.70;99.90;;;;;;5085968;28;20040;-60
2021/12/03 00:33:46;;;;;;;27.33;7.75;;;14.80;99.90;;;;;;5105634;28;20402;-59
2021/12/03 00:36:13;;;;;;;34.88;9.50;;;14.70;99.90;;;;;;5111228;28;20572;-59
2021/12/03 00:38:46;;;;;;;28.10;7.82;;;14.70;99.90;;;;;;5107857;28;20039;-59
2021/12/03 00:41:18;;;;;;;28.80;9.40;;;14.70;99.90;;;;;;5109242;28;20054;-59
2021/12/03 00:43:47;;;;;;;28.55;10.15;;;14.80;99.90;;;;;;5113865;28;20055;-59
2021/12/03 00:46:17;;;;;;;29.98;7.68;;;14.80;99.90;;;;;;5105333;28;20081;-59
2021/12/03 00:48:47;;;;;;;30.35;8.68;;;14.80;99.90;;;;;;5087462;28;20035;-59
2021/12/03 00:51:18;;;;;;;30.63;9.98;;;14.80;99.90;;;;;;5107158;28;20051;-59
2021/12/03 00:53:46;;;;;;;36.45;9.27;;;14.80;99.90;;;;;;5110138;28;20032;-59
2021/12/03 00:56:15;;;;;;;24.90;7.80;;;14.80;99.90;;;;;;5115154;27;20031;-59
2021/12/03 00:58:43;;;;;;;27.67;8.32;;;14.80;99.90;;;;;;5093953;27;20085;-59
2021/12/03 01:01:11;;;;;;;31.63;9.60;;;14.70;99.90;;;;;;5112957;28;20134;-59
2021/12/03 01:03:39;;;;;;;37.17;7.93;;;14.70;99.90;;;;;;5113437;28;20617;-59
2021/12/03 01:06:07;;;;;;;30.73;8.30;;;14.70;99.90;;;;;;5092863;28;20465;-59
2021/12/03 01:08:36;;;;;;;40.05;8.80;;;14.70;99.90;;;;;;5115063;27;20482;-59
2021/12/03 01:11:06;;;;;;;36.63;9.07;;;14.70;99.90;;;;;;5104785;28;20035;-59
2021/12/03 01:13:35;;;;;;;39.97;8.80;;;14.60;99.90;;;;;;5116862;28;20093;-59
2021/12/03 01:16:05;;;;;;;36.20;7.88;;;14.60;99.90;;;;;;5109055;28;20035;-59
2021/12/03 01:18:33;;;;;;;32.75;8.82;;;14.60;99.90;;;;;;5112305;28;20433;-59
2021/12/03 01:21:02;;;;;;;35.65;6.63;;;14.60;99.90;;;;;;5108899;28;20474;-59
2021/12/03 01:23:30;;;;;;;46.00;9.15;;;14.60;99.90;;;;;;5094581;28;20105;-59
2021/12/03 01:25:58;;;;;;;28.27;7.97;;;14.60;99.90;;;;;;5095430;28;20032;-59
2021/12/03 01:28:27;;;;;;;33.28;10.35;;;14.60;99.90;;;;;;5103380;28;20043;-59
2021/12/03 01:30:55;;;;;;;23.85;7.85;;;14.60;99.90;;;;;;5108887;27;20031;-59
2021/12/03 01:33:23;;;;;;;38.83;9.88;;;14.60;99.90;;;;;;5105213;28;20127;-59
2021/12/03 01:35:51;;;;;;;32.85;9.50;;;14.60;99.90;;;;;;5093986;28;20043;-59
2021/12/03 01:38:19;;;;;;;34.40;9.38;;;14.60;99.90;;;;;;5116038;28;20047;-59
2021/12/03 01:40:47;;;;;;;38.50;8.45;;;14.60;99.90;;;;;;5128034;27;20092;-59
2021/12/03 01:43:21;;;;;;;37.25;9.23;;;14.60;99.90;;;;;;5096114;28;20040;-60
2021/12/03 01:45:52;;;;;;;32.80;9.23;;;14.60;99.90;;;;;;5078092;28;20494;-60
2021/12/03 01:48:20;;;;;;;29.42;7.90;;;14.60;99.90;;;;;;5096611;28;20036;-60
2021/12/03 01:50:49;;;;;;;24.27;7.13;;;14.60;99.90;;;;;;5096664;28;20055;-60
2021/12/03 01:53:19;;;;;;;33.47;7.40;;;14.70;99.90;;;;;;5078493;28;20040;-60
2021/12/03 01:55:48;;;;;;;27.17;8.02;;;14.70;99.90;;;;;;5096085;28;20040;-60
2021/12/03 01:58:16;;;;;;;42.97;7.97;;;14.70;99.90;;;;;;5096444;28;20036;-60
2021/12/03 02:00:51;;;;;;;35.33;9.25;;;14.70;99.90;;;;;;5078304;28;20135;-60
2021/12/03 02:03:24;;;;;;;32.42;8.68;;;14.70;99.90;;;;;;5096207;28;20072;-60
2021/12/03 02:05:53;;;;;;;28.77;9.60;;;14.70;99.90;;;;;;5096347;28;20032;-60
2021/12/03 02:08:21;;;;;;;32.28;8.57;;;14.70;99.90;;;;;;5078223;28;20056;-60
2021/12/03 02:10:50;;;;;;;29.20;7.88;;;14.70;99.90;;;;;;5096065;28;20044;-60
2021/12/03 02:13:17;;;;;;;32.55;10.30;;;14.60;99.90;;;;;;5096240;28;20510;-60
2021/12/03 02:15:45;;;;;;;39.63;9.13;;;14.60;99.90;;;;;;5078326;28;20052;-60
2021/12/03 02:18:15;;;;;;;31.63;9.07;;;14.60;99.90;;;;;;5061561;28;20390;-60
2021/12/03 02:20:45;;;;;;;32.28;9.43;;;14.60;99.90;;;;;;5096250;28;20055;-60
2021/12/03 02:23:14;;;;;;;33.63;7.47;;;14.50;99.90;;;;;;5077921;28;20427;-60
2021/12/03 02:25:43;;;;;;;29.52;9.60;;;14.50;99.90;;;;;;5078161;28;20039;-60
2021/12/03 02:28:12;;;;;;;28.15;7.10;;;14.50;99.90;;;;;;5096150;28;20051;-60
2021/12/03 02:30:41;;;;;;;27.90;8.05;;;14.60;99.90;;;;;;5095819;28;20059;-60
2021/12/03 02:33:09;;;;;;;30.98;8.15;;;14.50;99.90;;;;;;5061265;28;20131;-60
2021/12/03 02:35:39;;;;;;;25.50;5.97;;;14.50;99.90;;;;;;5095673;28;20040;-60
2021/12/03 02:38:08;;;;;;;29.58;8.18;;;14.50;99.90;;;;;;5077885;28;20093;-60
2021/12/03 02:40:35;;;;;;;26.27;7.60;;;14.50;99.90;;;;;;5077711;28;20097;-59
2021/12/03 02:43:04;;;;;;;31.30;8.25;;;14.50;99.90;;;;;;5060904;28;20461;-59
2021/12/03 02:45:31;;;;;;;29.48;8.85;;;14.60;99.90;;;;;;5094117;28;20378;-60
2021/12/03 02:48:00;;;;;;;24.85;8.32;;;14.50;99.90;;;;;;5077529;28;20067;-60
2021/12/03 02:50:28;;;;;;;26.63;6.25;;;14.50;99.90;;;;;;5094043;28;20051;-60
2021/12/03 02:52:56;;;;;;;27.17;7.75;;;14.50;99.90;;;;;;5095281;28;20097;-60
2021/12/03 02:55:24;;;;;;;21.05;7.50;;;14.50;99.90;;;;;;5094063;28;20126;-60
2021/12/03 02:57:52;;;;;;;34.28;8.00;;;14.50;99.90;;;;;;5077422;28;20122;-60
2021/12/03 03:00:23;;;;;;;29.83;7.18;;;14.50;99.90;;;;;;5095313;28;20139;-60
2021/12/03 03:02:51;;;;;;;36.22;9.43;;;14.50;99.90;;;;;;5061134;28;20071;-60
2021/12/03 03:05:21;;;;;;;31.95;10.23;;;14.50;99.90;;;;;;5094901;28;20060;-60
2021/12/03 03:07:48;;;;;;;24.73;7.60;;;14.50;99.90;;;;;;5076111;28;20380;-60
2021/12/03 03:10:22;;;;;;;31.83;9.85;;;14.40;99.90;;;;;;5095207;28;20039;-60
2021/12/03 03:12:50;;;;;;;26.17;6.75;;;14.50;99.90;;;;;;5095112;28;20040;-60
2021/12/03 03:15:18;;;;;;;25.38;7.32;;;14.50;99.90;;;;;;5094779;28;20476;-60
2021/12/03 03:17:47;;;;;;;29.98;9.20;;;14.50;99.90;;;;;;5094794;28;20044;-60
2021/12/03 03:20:16;;;;;;;31.30;8.07;;;14.50;99.90;;;;;;5094878;28;20059;-60
2021/12/03 03:22:44;;;;;;;30.95;7.30;;;14.50;99.90;;;;;;5094919;28;20367;-60
2021/12/03 03:25:15;;;;;;;39.70;9.52;;;14.50;99.90;;;;;;5076263;28;20055;-60
2021/12/03 03:27:43;;;;;;;25.25;7.75;;;14.50;99.90;;;;;;5094790;28;20119;-60
2021/12/03 03:30:14;;;;;;;30.17;7.93;;;14.50;99.90;;;;;;5094469;28;20422;-60
2021/12/03 03:32:42;;;;;;;24.13;6.93;;;14.50;99.90;;;;;;5093768;28;20039;-60
2021/12/03 03:35:10;;;;;;;38.72;9.10;;;14.50;99.90;;;;;;5094632;28;20044;-60
2021/12/03 03:37:38;;;;;;;26.98;8.02;;;14.50;99.90;;;;;;5094431;28;20037;-60
2021/12/03 03:40:09;;;;;;;30.55;6.82;;;14.40;99.90;;;;;;5094475;28;20462;-60
2021/12/03 03:42:38;;;;;;;26.13;8.10;;;14.50;99.90;;;;;;5094359;28;20040;-60
2021/12/03 03:45:09;;;;;;;38.13;8.98;;;14.50;99.90;;;;;;5076224;28;20052;-60
2021/12/03 03:47:38;;;;;;;34.03;8.70;;;14.40;99.90;;;;;;5076397;28;20043;-60
2021/12/03 03:50:07;;;;;;;23.92;6.88;;;14.40;99.90;;;;;;5075698;28;20139;-60
2021/12/03 03:52:37;;;;;;;39.70;8.93;;;14.40;99.90;;;;;;5059372;28;20468;-60
2021/12/03 03:55:07;;;;;;;28.60;7.30;;;14.40;99.90;;;;;;5092988;28;20097;-60
2021/12/03 03:57:35;;;;;;;27.42;7.80;;;14.40;99.90;;;;;;5076186;28;20048;-60
2021/12/03 04:00:05;;;;;;;31.45;7.20;;;14.40;99.90;;;;;;5094111;28;20481;-60
2021/12/03 04:02:38;;;;;;;28.77;7.80;;;14.30;99.90;;;;;;5094175;28;20024;-60
2021/12/03 04:05:06;;;;;;;28.83;6.80;;;14.30;99.90;;;;;;5076103;28;20039;-60
2021/12/03 04:07:34;;;;;;;31.85;7.13;;;14.30;99.90;;;;;;5076216;28;20055;-60
2021/12/03 04:10:04;;;;;;;21.30;8.00;;;14.30;99.90;;;;;;5093871;28;20067;-60
2021/12/03 04:12:32;;;;;;;31.02;7.50;;;14.40;99.90;;;;;;5093890;28;20040;-60
2021/12/03 04:15:00;;;;;;;33.13;6.28;;;14.40;99.90;;;;;;5075986;28;20459;-60
2021/12/03 04:17:28;;;;;;;25.45;6.93;;;14.40;99.90;;;;;;5059271;28;20426;-60
2021/12/03 04:19:55;;;;;;;24.77;7.35;;;14.40;99.90;;;;;;5093761;28;20042;-60
2021/12/03 04:22:24;;;;;;;30.42;6.90;;;14.40;99.90;;;;;;5093804;28;20035;-60
2021/12/03 04:24:54;;;;;;;22.67;7.05;;;14.40;99.90;;;;;;5075922;28;20039;-60
2021/12/03 04:27:23;;;;;;;30.80;7.75;;;14.50;99.90;;;;;;5059242;28;20114;-60
2021/12/03 04:29:50;;;;;;;29.50;6.00;;;14.40;99.90;;;;;;5075640;28;20040;-60
2021/12/03 04:32:19;;;;;;;26.67;5.75;;;14.40;99.90;;;;;;5093814;28;20036;-60
2021/12/03 04:34:47;;;;;;;26.75;7.03;;;14.40;99.90;;;;;;5093896;28;20058;-60
2021/12/03 04:37:14;;;;;;;27.77;6.30;;;14.30;99.90;;;;;;5093591;28;20040;-60
2021/12/03 04:39:42;;;;;;;18.52;6.68;;;14.30;99.90;;;;;;5074918;28;20040;-60
2021/12/03 04:42:10;;;;;;;31.40;8.77;;;14.30;99.90;;;;;;5093355;28;20063;-60
2021/12/03 04:44:38;;;;;;;26.05;9.82;;;14.20;99.90;;;;;;5075492;28;20048;-60
2021/12/03 04:47:06;;;;;;;28.55;9.75;;;14.20;99.90;;;;;;5093614;28;20385;-60
2021/12/03 04:49:34;;;;;;;25.13;7.05;;;14.20;99.90;;;;;;5075541;28;20036;-60
2021/12/03 04:52:02;;;;;;;31.98;9.15;;;14.10;99.90;;;;;;5093494;28;20035;-60
2021/12/03 04:54:29;;;;;;;23.25;6.50;;;14.10;99.90;;;;;;5093431;28;20127;-60
2021/12/03 04:56:57;;;;;;;23.77;6.05;;;14.10;99.90;;;;;;5093400;28;20036;-60
2021/12/03 04:59:25;;;;;;;23.85;6.22;;;14.20;99.90;;;;;;5075816;28;20054;-60
2021/12/03 05:01:56;;;;;;;33.10;6.63;;;14.20;99.90;;;;;;5093410;28;20470;-60
2021/12/03 05:04:24;;;;;;;34.88;9.38;;;14.20;99.90;;;;;;5093432;28;20039;-60
2021/12/03 05:06:55;;;;;;;28.60;6.43;;;14.20;99.90;;;;;;5075527;28;20378;-60
2021/12/03 05:09:23;;;;;;;31.80;7.47;;;14.20;99.90;;;;;;5093336;28;20474;-60
2021/12/03 05:11:50;;;;;;;33.75;8.25;;;14.20;99.90;;;;;;5093322;28;20040;-60
2021/12/03 05:14:18;;;;;;;25.25;6.18;;;14.20;99.90;;;;;;5093282;28;20035;-60
2021/12/03 05:16:48;;;;;;;21.88;6.22;;;14.30;99.90;;;;;;5075262;28;20086;-60
2021/12/03 05:19:17;;;;;;;25.13;6.18;;;14.20;99.90;;;;;;5093368;28;20036;-60
2021/12/03 05:21:45;;;;;;;28.55;6.25;;;14.30;99.90;;;;;;5075347;28;20538;-60
2021/12/03 05:24:14;;;;;;;22.35;7.03;;;14.30;99.90;;;;;;5092964;28;20044;-60
2021/12/03 05:26:43;;;;;;;32.13;6.45;;;14.20;99.90;;;;;;5075220;28;20032;-60
2021/12/03 05:29:12;;;;;;;17.15;6.13;;;14.30;99.90;;;;;;5075200;28;20044;-60
2021/12/03 05:31:40;;;;;;;22.58;5.65;;;14.30;99.90;;;;;;5096535;28;20036;-60
2021/12/03 05:34:16;;;;;;;16.80;7.38;;;14.20;99.90;;;;;;5097235;28;20055;-60
2021/12/03 05:36:46;;;;;;;17.60;6.88;;;14.20;99.90;;;;;;5096520;28;20040;-60
2021/12/03 05:39:14;;;;;;;26.85;7.47;;;14.30;99.90;;;;;;5078753;28;20047;-60
2021/12/03 05:41:41;;;;;;;28.00;7.50;;;14.30;99.90;;;;;;5096760;28;20036;-60
2021/12/03 05:44:09;;;;;;;24.73;6.30;;;14.30;99.90;;;;;;5096612;28;20044;-60
2021/12/03 05:46:37;;;;;;;27.42;6.75;;;14.30;99.90;;;;;;5096670;28;20118;-60
2021/12/03 05:49:06;;;;;;;28.75;5.93;;;14.30;99.90;;;;;;5096500;28;20044;-60
2021/12/03 05:51:33;;;;;;;23.33;6.78;;;14.30;99.90;;;;;;5096728;28;20377;-60
2021/12/03 05:54:01;;;;;;;28.83;5.45;;;14.30;99.90;;;;;;5096752;28;20060;-60
2021/12/03 05:56:29;;;;;;;22.67;5.28;;;14.30;99.90;;;;;;5078415;28;20432;-60
2021/12/03 05:58:59;;;;;;;23.25;6.95;;;14.30;99.90;;;;;;5096573;28;20044;-60
2021/12/03 06:01:26;;;;;;;19.60;7.13;;;14.30;99.90;;;;;;5096262;28;20048;-59
2021/12/03 06:03:54;;;;;;;24.17;4.88;;;14.30;99.90;;;;;;5061517;28;20042;-60
2021/12/03 06:06:22;;;;;;;25.38;8.80;;;14.30;99.90;;;;;;5078152;28;20513;-59
2021/12/03 06:08:50;;;;;;;19.73;5.18;;;14.30;99.90;;;;;;5078088;28;20382;-60
2021/12/03 06:11:18;;;;;;;21.33;6.50;;;14.30;99.90;;;;;;5096218;28;20040;-60
2021/12/03 06:13:45;;;;;;;23.52;7.75;;;14.30;99.90;;;;;;5078192;28;20036;-60
2021/12/03 06:16:13;;;;;;;21.90;5.75;;;14.30;99.90;;;;;;5096095;28;20118;-60
2021/12/03 06:18:41;;;;;;;24.63;5.90;;;14.40;99.90;;;;;;5095978;28;20039;-60
2021/12/03 06:21:11;;;;;;;17.85;5.38;;;14.30;99.90;;;;;;5096103;28;20449;-60
2021/12/03 06:23:39;;;;;;;21.83;5.82;;;14.30;99.90;;;;;;5095955;28;20036;-60
2021/12/03 06:26:09;;;;;;;31.75;6.43;;;14.40;99.90;;;;;;5077696;28;20458;-60
2021/12/03 06:28:40;;;;;;;23.65;6.00;;;14.40;99.90;;;;;;5095945;28;20057;-60
2021/12/03 06:31:08;;;;;;;18.92;5.47;;;14.40;99.90;;;;;;5095709;28;20351;-60
2021/12/03 06:33:35;;;;;;;37.35;6.28;;;14.40;99.90;;;;;;5078039;28;20040;-59
2021/12/03 06:36:03;;;;;;;21.35;6.05;;;14.40;99.90;;;;;;5077553;28;20040;-60
2021/12/03 06:38:31;;;;;;;20.13;6.15;;;14.50;99.90;;;;;;5094535;28;20367;-60
2021/12/03 06:40:59;;;;;;;15.98;4.97;;;14.40;99.90;;;;;;5094980;28;20047;-59
2021/12/03 06:43:27;;;;;;;23.98;6.85;;;14.50;99.90;;;;;;5095119;28;20404;-60
2021/12/03 06:45:55;;;;;;;23.55;5.80;;;14.40;99.90;;;;;;5076872;28;20070;-60
2021/12/03 06:48:23;;;;;;;25.15;7.63;;;14.50;99.90;;;;;;5077602;28;20097;-60
2021/12/03 06:50:51;;;;;;;21.35;6.55;;;14.50;99.90;;;;;;5095330;28;20043;-60
2021/12/03 06:53:23;;;;;;;20.42;7.28;;;14.50;99.90;;;;;;5077535;28;20036;-60
2021/12/03 06:55:54;;;;;;;25.92;5.18;;;14.50;99.90;;;;;;5095404;28;20044;-60
2021/12/03 06:58:23;;;;;;;13.93;4.50;;;14.50;99.90;;;;;;5095398;28;20061;-60
2021/12/03 07:00:56;;;;;;;18.20;6.13;;;14.50;99.90;;;;;;5095159;28;20036;-59
2021/12/03 07:03:23;;;;;;;18.33;4.95;;;14.50;99.90;;;;;;5094040;28;20047;-60
2021/12/03 07:05:51;;;;;;;15.88;5.38;;;14.50;99.90;;;;;;5077389;28;20469;-60
2021/12/03 07:08:19;;;;;;;21.50;4.93;;;14.50;99.90;;;;;;5091183;28;20042;-60
2021/12/03 07:10:47;;;;;;;17.02;6.03;;;14.50;99.90;;;;;;5107043;28;20545;-60
2021/12/03 07:13:14;;;;;;;23.67;7.03;;;14.60;99.90;;;;;;5104637;28;20038;-59
2021/12/03 07:15:42;;;;;;;25.77;6.53;;;14.50;99.90;;;;;;5101893;28;20135;-59
2021/12/03 07:18:09;;;;;;;23.90;5.78;;;14.60;99.90;;;;;;5113670;28;20084;-59
2021/12/03 07:20:37;;;;;;;18.13;6.75;;;14.50;99.90;;;;;;5104332;28;20039;-59
2021/12/03 07:23:04;;;;;;;18.25;8.23;;;14.60;99.90;;;;;;5088420;28;20032;-59
2021/12/03 07:25:32;;;;;;;23.05;6.28;;;14.60;99.90;;;;;;5091977;28;20036;-60
2021/12/03 07:27:59;;;;;;;23.38;7.35;;;14.60;99.90;;;;;;5095623;28;20098;-59
2021/12/03 07:30:30;;;;;;;18.17;6.45;;;14.70;99.90;;;;;;5102232;28;20039;-59
2021/12/03 07:32:59;;;;;;;22.88;6.80;;;14.70;99.90;;;;;;5101978;28;20036;-59
2021/12/03 07:35:26;;;;;;;32.65;7.25;;;14.70;99.90;;;;;;5110106;27;20036;-59
2021/12/03 07:37:54;;;;;;;23.27;5.32;;;14.80;99.90;;;;;;5099145;28;20044;-59
2021/12/03 07:40:22;;;;;;;19.45;5.97;;;14.80;99.90;;;;;;5107608;28;20041;-60
2021/12/03 07:42:49;;;;;;;24.70;6.05;;;14.80;99.90;;;;;;5096367;28;20031;-60
2021/12/03 07:45:17;;;;;;;25.02;7.35;;;14.90;99.90;;;;;;5094814;28;20478;-59
2021/12/03 07:47:45;;;;;;;14.88;5.53;;;14.90;99.90;;;;;;5086677;28;20043;-59
2021/12/03 07:50:14;;;;;;;20.27;5.60;;;14.90;99.90;;;;;;5095985;28;20028;-59
2021/12/03 07:52:42;;;;;;;22.77;5.97;;;15.00;99.90;;;;;;5095953;28;20070;-60
2021/12/03 07:55:10;;;;;;;20.85;5.25;;;15.00;99.90;;;;;;5114356;28;20040;-60
2021/12/03 07:57:37;;;;;;;21.05;5.50;;;15.10;99.90;;;;;;5114654;28;20389;-60
2021/12/03 08:00:07;;;;;;;21.10;5.80;;;15.10;99.90;;;;;;5114556;28;20040;-59
2021/12/03 08:02:41;;;;;;;18.80;5.30;;;15.10;99.90;;;;;;5096490;28;20040;-60
2021/12/03 08:05:09;;;;;;;25.05;5.90;;;15.10;99.90;;;;;;5114333;28;20138;-60
2021/12/03 08:07:36;;;;;;;18.30;6.35;;;15.10;99.90;;;;;;5096281;28;20051;-60
2021/12/03 08:10:05;;;;;;;41.58;7.35;;;15.20;99.90;;;;;;5114365;28;20055;-60
2021/12/03 08:12:32;;;;;;;50.33;8.85;;;15.30;99.90;;;;;;5079187;28;20093;-60
2021/12/03 08:15:00;;;;;;;24.13;5.75;;;15.40;99.90;;;;;;5096604;28;20031;-60
2021/12/03 08:17:28;;;;;;;18.27;4.90;;;15.50;99.90;;;;;;5114254;28;20469;-60
2021/12/03 08:19:56;;;;;;;22.33;5.57;;;15.60;99.90;;;;;;5114098;28;20043;-60
2021/12/03 08:22:23;;;;;;;27.42;7.35;;;15.70;99.90;;;;;;5113943;28;20075;-60
2021/12/03 08:24:51;;;;;;;18.40;6.15;;;15.60;99.90;;;;;;5114485;28;20042;-59
2021/12/03 08:27:18;;;;;;;18.52;6.10;;;15.60;99.90;;;;;;5096099;28;20088;-60
2021/12/03 08:29:47;;;;;;;19.85;6.25;;;15.60;99.90;;;;;;5096496;28;20520;-59
2021/12/03 08:32:15;;;;;;;16.05;4.55;;;15.60;99.90;;;;;;5096027;28;20032;-59
2021/12/03 08:34:42;;;;;;;15.27;5.78;;;15.60;99.90;;;;;;5113765;28;20380;-59
2021/12/03 08:37:11;;;;;;;19.38;6.45;;;15.60;99.90;;;;;;5095791;28;20032;-59
2021/12/03 08:39:39;;;;;;;24.45;6.35;;;15.70;99.90;;;;;;5079205;28;20044;-60
2021/12/03 08:42:09;;;;;;;22.02;5.97;;;15.70;99.90;;;;;;5114106;28;20063;-60
2021/12/03 08:44:37;;;;;;;52.00;7.95;;;15.70;99.90;;;;;;5114088;28;20054;-60
2021/12/03 08:47:06;;;;;;;20.27;6.60;;;15.70;99.90;;;;;;5078851;28;20473;-60
2021/12/03 08:49:38;;;;;;;21.15;5.05;;;15.70;99.90;;;;;;5095949;28;20610;-60
2021/12/03 08:57:31;;;;;;;22.65;4.68;;;15.80;99.90;;;;;;5095628;28;20043;-60
2021/12/03 09:00:05;;;;;;;23.58;7.78;;;15.80;99.90;;;;;;5113999;28;20035;-60
2021/12/03 09:02:33;;;;;;;19.80;5.25;;;15.90;99.90;;;;;;5095960;28;20032;-60
2021/12/03 09:05:01;;;;;;;21.67;6.88;;;15.90;99.90;;;;;;5114713;28;20478;-60
2021/12/03 09:07:28;;;;;;;31.10;5.28;;;16.00;99.90;;;;;;5082955;28;20035;-60
2021/12/03 09:09:57;;;;;;;28.65;5.75;;;16.00;99.90;;;;;;5117867;28;20126;-60
2021/12/03 09:12:25;;;;;;;19.60;5.60;;;16.00;99.90;;;;;;5099765;28;20385;-60
2021/12/03 09:14:55;;;;;;;23.27;6.50;;;16.00;99.90;;;;;;5099559;28;20043;-60
2021/12/03 09:25:21;;;;;;;22.08;5.47;;;16.10;99.90;;;;;;5117112;28;20031;-60
2021/12/03 09:27:49;;;;;;;21.70;6.32;;;16.30;99.90;;;;;;5099145;28;20048;-60
2021/12/03 09:30:17;;;;;;;18.13;6.35;;;16.20;99.90;;;;;;5082539;28;20490;-60
2021/12/03 09:32:48;;;;;;;12.40;6.22;;;16.30;99.90;;;;;;5099283;28;20048;-60
2021/12/03 09:35:16;;;;;;;21.02;5.32;;;16.30;99.90;;;;;;5117151;28;20039;-60
2021/12/03 09:37:44;;;;;;;19.35;5.38;;;16.30;99.90;;;;;;5117072;28;20120;-59
2021/12/03 09:40:19;;;;;;;22.45;6.25;;;16.40;99.90;;;;;;5117279;28;20051;-59
2021/12/03 09:42:48;;;;;;;19.97;4.93;;;16.30;99.90;;;;;;5117244;28;20082;-60
2021/12/03 09:45:15;;;;;;;14.98;5.13;;;16.40;99.90;;;;;;5098881;28;20073;-59
2021/12/03 09:47:45;;;;;;;21.02;4.82;;;16.40;99.90;;;;;;5117086;28;20167;-60
2021/12/03 09:50:14;;;;;;;14.23;5.78;;;16.40;99.90;;;;;;5117024;28;20126;-60
2021/12/03 09:55:30;;;;;;;;;;;16.50;99.90;;;;;;5117486;28;20416;-60
2021/12/03 10:00:51;;;;;;;21.35;5.75;;;16.60;99.90;;;;;;5116808;28;20040;-60
2021/12/03 10:07:11;;;;;;;18.23;4.72;;;16.60;99.90;;;;;;5098025;28;20058;-60
2021/12/03 10:14:37;;;;;;;24.27;6.88;;;16.80;99.90;;;;;;5098410;28;20044;-63
2021/12/03 11:00:49;;;;;;;23.75;5.82;;;17.10;99.90;;;;;;5115862;28;20093;-59
2021/12/03 13:59:04;;;;;;;21.15;5.93;;;16.30;99.90;;;;;;5098477;28;20048;-60
2021/12/03 14:19:15;;;;;;;16.50;6.53;;;16.20;99.90;;;;;;5116493;28;20059;-61
2021/12/03 14:45:14;;;;;;;11.38;4.82;;;16.30;99.90;;;;;;5116259;28;20105;-61
2021/12/03 14:48:05;;;;;;;18.73;5.60;;;16.30;99.90;;;;;;5097562;28;20035;-61
2021/12/03 14:51:00;;;;;;;7.63;4.93;;;16.30;99.90;;;;;;5115766;28;20072;-61
2021/12/03 14:56:19;;;;;;;7.97;3.80;;;16.30;99.90;;;;;;5115748;28;20028;-61
2021/12/03 14:59:17;;;;;;;7.78;3.90;;;16.30;99.90;;;;;;5097411;28;20377;-61
2021/12/03 15:09:34;;;;;;;9.65;4.78;;;16.10;99.90;;;;;;5097543;28;20038;-62
2021/12/03 15:21:04;;;;;;;17.05;9.85;;;16.00;99.90;;;;;;5097106;28;20277;-66
2021/12/03 15:26:06;;;;;;;43.55;13.57;;;16.00;99.90;;;;;;5079894;28;20083;-59
2021/12/03 16:08:51;;;;;;;11.77;6.25;;;15.40;99.90;;;;;;5114009;28;20388;-63
2021/12/03 16:11:37;;;;;;;9.50;5.07;;;15.40;99.90;;;;;;5096198;28;20046;-63
2021/12/03 16:43:45;;;;;;;13.07;5.88;;;15.10;99.90;;;;;;5093636;28;20047;-62
2021/12/03 16:54:08;;;;;;;5.35;3.83;;;15.00;99.90;;;;;;5098459;28;20044;-62
2021/12/03 16:56:43;;;;;;;7.95;3.63;;;15.00;99.90;;;;;;5100476;28;20043;-62
2021/12/03 16:59:11;;;;;;;5.63;3.33;;;15.10;99.90;;;;;;5094022;28;20031;-62
2021/12/03 17:01:46;;;;;;;5.82;3.85;;;15.00;99.90;;;;;;5092312;28;20428;-62
2021/12/03 17:50:11;;;;;;;8.93;5.47;;;14.80;99.90;;;;;;5090263;28;20739;-60
2021/12/03 17:58:06;;;;;;;9.10;4.53;;;14.80;99.90;;;;;;5107705;28;20040;-60
2021/12/03 18:00:49;;;;;;;4.63;3.53;;;14.80;99.90;;;;;;5091190;28;20043;-60
2021/12/03 18:06:09;;;;;;;9.98;4.65;;;14.80;99.90;;;;;;5109282;28;20068;-60
2021/12/03 18:08:49;;;;;;;9.18;4.72;;;14.70;99.90;;;;;;5096061;28;20044;-60
2021/12/03 18:17:21;;;;;;;6.72;3.60;;;14.70;99.90;;;;;;5102584;28;20067;-60
2021/12/03 18:45:04;;;;;;;9.15;5.53;;;14.70;99.90;;;;;;5114263;27;20035;-59
2021/12/03 18:53:25;;;;;;;7.03;4.68;;;14.60;99.90;;;;;;5064801;27;20043;-59
2021/12/03 18:55:55;;;;;;;9.25;5.18;;;14.60;99.90;;;;;;5108034;27;20078;-59
2021/12/03 18:58:25;;;;;;;8.50;4.65;;;14.60;99.90;;;;;;5113615;28;20040;-60
2021/12/03 19:00:55;;;;;;;8.20;6.28;;;14.60;99.90;;;;;;5108047;28;20031;-59
2021/12/03 19:03:51;;;;;;;8.52;5.18;;;14.60;99.90;;;;;;5087490;28;20369;-60
2021/12/03 19:06:43;;;;;;;8.82;5.28;;;14.60;99.90;;;;;;5094490;28;20032;-60
2021/12/03 19:09:14;;;;;;;10.52;5.85;;;14.60;99.90;;;;;;5094762;28;20102;-59
2021/12/03 19:11:52;;;;;;;;;;;;;;;;;;;;;
2021/12/03 19:14:10;;;;;;;8.80;5.43;;;14.60;99.90;;;;;;5094552;28;20087;-60
2021/12/03 19:16:37;;;;;;;8.73;4.75;;;14.60;99.90;;;;;;5094721;28;20036;-59
2021/12/03 19:19:06;;;;;;;9.68;4.80;;;14.60;99.90;;;;;;5095000;28;20063;-60
2021/12/03 19:21:39;;;;;;;9.15;4.50;;;14.60;99.90;;;;;;5094567;28;20051;-59
2021/12/03 19:24:08;;;;;;;8.73;3.85;;;14.60;99.90;;;;;;5094562;28;20032;-60
2021/12/03 19:26:42;;;;;;;7.88;4.68;;;14.60;99.90;;;;;;5060335;28;20086;-60
2021/12/03 19:29:16;;;;;;;7.78;4.43;;;14.60;99.90;;;;;;5094436;28;20044;-59
2021/12/03 19:31:47;;;;;;;8.65;5.53;;;14.60;99.90;;;;;;5094573;28;20044;-60
2021/12/03 19:34:14;;;;;;;8.57;5.00;;;14.50;99.90;;;;;;5094688;28;20036;-60
2021/12/03 19:36:45;;;;;;;10.48;5.05;;;14.50;99.90;;;;;;5076617;28;20136;-59
2021/12/03 19:39:17;;;;;;;6.53;4.60;;;14.50;99.90;;;;;;5076326;28;20481;-61
2021/12/03 19:42:03;;;;;;;8.27;5.32;;;14.50;99.90;;;;;;5094011;28;20032;-59
2021/12/03 19:44:37;;;;;;;8.18;5.43;;;14.50;99.90;;;;;;5094431;28;20117;-60
2021/12/03 19:47:06;;;;;;;7.07;4.88;;;14.50;99.90;;;;;;5094408;28;20369;-60
2021/12/03 19:52:43;;;;;;;7.28;4.68;;;14.50;99.90;;;;;;5031944;28;20152;-61
2021/12/03 19:55:12;;;;;;;6.65;4.90;;;14.50;99.90;;;;;;5085271;28;20547;-60
2021/12/03 19:57:40;;;;;;;8.02;5.63;;;14.50;99.90;;;;;;5094185;28;20040;-60
2021/12/03 20:00:08;;;;;;;6.85;5.60;;;14.50;99.90;;;;;;5094265;28;20119;-60
2021/12/03 20:02:41;;;;;;;9.07;4.28;;;14.50;99.90;;;;;;5093996;28;20082;-60
2021/12/03 20:05:08;;;;;;;9.55;5.13;;;14.50;99.90;;;;;;5094063;28;20044;-61
2021/12/03 20:07:36;;;;;;;10.75;5.45;;;14.50;99.90;;;;;;5094019;28;20036;-60
2021/12/03 20:10:10;;;;;;;14.55;5.22;;;14.50;99.90;;;;;;5075781;28;20051;-60
2021/12/03 20:12:38;;;;;;;9.43;5.40;;;14.50;99.90;;;;;;5094061;28;20039;-60
2021/12/03 20:15:09;;;;;;;9.25;4.95;;;14.50;99.90;;;;;;5093596;28;20039;-60
2021/12/03 20:17:51;;;;;;;9.18;5.82;;;14.50;99.90;;;;;;5094168;28;20044;-60
2021/12/03 20:20:19;;;;;;;9.95;5.57;;;14.50;99.90;;;;;;5094081;28;20039;-60
2021/12/03 20:22:57;;;;;;;9.45;5.55;;;14.50;99.90;;;;;;5075809;28;20054;-60
2021/12/03 20:27:56;;;;;;;8.70;5.60;;;14.50;99.90;;;;;;5067033;28;20445;-60
2021/12/03 20:38:13;;;;;;;4.78;2.60;;;14.50;99.90;;;;;;5093660;28;20119;-60
2021/12/03 20:40:41;;;;;;;4.20;2.75;;;14.40;99.90;;;;;;5093714;28;20032;-60
2021/12/03 20:46:04;;;;;;;5.70;3.63;;;14.30;99.90;;;;;;5075261;28;20048;-60
2021/12/03 21:09:45;;;;;;;3.53;2.20;;;14.20;99.90;;;;;;5097489;28;20047;-60
2021/12/03 21:12:57;;;;;;;4.55;3.42;;;14.20;99.90;;;;;;5097442;28;20075;-60
2021/12/03 21:15:15;;;;;;;14.52;3.35;;;14.20;99.90;;;;;;5089258;28;20063;-60
2021/12/03 21:20:21;;;;;;;4.43;3.13;;;14.20;99.90;;;;;;5097204;28;20048;-60
2021/12/03 21:22:53;;;;;;;5.97;2.83;;;14.20;99.90;;;;;;5078821;28;20082;-60
2021/12/03 21:25:25;;;;;;;8.32;3.60;;;14.20;99.90;;;;;;5097141;28;20044;-60
2021/12/03 21:28:01;;;;;;;4.28;2.88;;;14.20;99.90;;;;;;5096796;28;20564;-60
2021/12/03 21:30:38;;;;;;;6.18;2.80;;;14.20;99.90;;;;;;5097081;28;20055;-60
2021/12/03 21:38:40;;;;;;;11.25;5.07;;;14.30;99.90;;;;;;5096925;28;20487;-60